sensor_id;sensor_type;location;lat;lon;timestamp;pressure;altitude;pressure_sealevel;temperature;humidity
77192;BME280;66172;48.526;8.078;2023-04-24T00:00:11;98550.81;;;11.32;79.55
77192;BME280;66172;48.526;8.078;2023-04-24T00:02:44;98547.66;;;11.04;79.78
77192;BME280;66172;48.526;8.078;2023-04-24T00:05:16;98544.88;;;11.27;80.13
77192;BME280;66172;48.526;8.078;2023-04-24T00:07:44;98545.63;;;11.24;80.12
77192;BME280;66172;48.526;8.078;2023-04-24T00:10:11;98545.78;;;11.34;79.45
77192;BME280;66172;48.526;8.078;2023-04-24T00:12:38;98538.25;;;11.50;79.68
77192;BME280;66172;48.526;8.078;2023-04-24T00:15:04;98543.63;;;11.47;78.97
77192;BME280;66172;48.526;8.078;2023-04-24T00:17:30;98545.00;;;11.34;79.81
77192;BME280;66172;48.526;8.078;2023-04-24T00:19:56;98563.44;;;11.44;79.79
77192;BME280;66172;48.526;8.078;2023-04-24T00:22:27;98544.09;;;11.49;79.33
77192;BME280;66172;48.526;8.078;2023-04-24T00:24:53;98543.16;;;11.64;78.99
77192;BME280;66172;48.526;8.078;2023-04-24T00:27:19;98551.22;;;11.57;79.11
77192;BME280;66172;48.526;8.078;2023-04-24T00:29:45;98550.66;;;11.48;79.73
77192;BME280;66172;48.526;8.078;2023-04-24T00:32:11;98540.06;;;11.39;79.72
77192;BME280;66172;48.526;8.078;2023-04-24T00:34:37;98537.34;;;11.39;79.99
77192;BME280;66172;48.526;8.078;2023-04-24T00:37:03;98536.38;;;11.54;79.91
77192;BME280;66172;48.526;8.078;2023-04-24T00:39:29;98544.91;;;11.53;79.89
77192;BME280;66172;48.526;8.078;2023-04-24T00:41:55;98544.34;;;11.67;79.27
77192;BME280;66172;48.526;8.078;2023-04-24T00:44:22;98553.44;;;11.51;80.40
77192;BME280;66172;48.526;8.078;2023-04-24T00:46:48;98569.63;;;11.41;81.16
77192;BME280;66172;48.526;8.078;2023-04-24T00:49:18;98560.94;;;11.32;81.30
77192;BME280;66172;48.526;8.078;2023-04-24T00:51:44;98558.47;;;11.49;80.66
77192;BME280;66172;48.526;8.078;2023-04-24T00:54:12;98558.66;;;11.11;82.00
77192;BME280;66172;48.526;8.078;2023-04-24T00:56:38;98561.88;;;11.43;80.78
77192;BME280;66172;48.526;8.078;2023-04-24T00:59:04;98557.31;;;11.24;81.33
77192;BME280;66172;48.526;8.078;2023-04-24T01:01:30;98548.25;;;10.94;83.27
77192;BME280;66172;48.526;8.078;2023-04-24T01:03:57;98547.69;;;10.85;83.02
77192;BME280;66172;48.526;8.078;2023-04-24T01:06:23;98538.25;;;11.01;82.78
77192;BME280;66172;48.526;8.078;2023-04-24T01:08:53;98536.41;;;10.83;84.30
77192;BME280;66172;48.526;8.078;2023-04-24T01:11:21;98539.78;;;10.76;84.23
77192;BME280;66172;48.526;8.078;2023-04-24T01:13:47;98537.13;;;10.80;83.44
77192;BME280;66172;48.526;8.078;2023-04-24T01:16:14;98539.94;;;11.10;82.43
77192;BME280;66172;48.526;8.078;2023-04-24T01:18:40;98553.19;;;11.11;82.47
77192;BME280;66172;48.526;8.078;2023-04-24T01:21:07;98550.47;;;10.88;83.98
77192;BME280;66172;48.526;8.078;2023-04-24T01:23:34;98547.47;;;10.93;84.45
77192;BME280;66172;48.526;8.078;2023-04-24T01:26:00;98549.44;;;10.96;82.13
77192;BME280;66172;48.526;8.078;2023-04-24T01:28:26;98537.84;;;10.99;83.13
77192;BME280;66172;48.526;8.078;2023-04-24T01:30:52;98541.69;;;10.98;83.06
77192;BME280;66172;48.526;8.078;2023-04-24T01:33:20;98543.88;;;11.12;83.38
77192;BME280;66172;48.526;8.078;2023-04-24T01:35:48;98538.47;;;11.16;83.74
77192;BME280;66172;48.526;8.078;2023-04-24T01:38:14;98542.44;;;11.18;83.62
77192;BME280;66172;48.526;8.078;2023-04-24T01:40:40;98540.97;;;11.24;82.81
77192;BME280;66172;48.526;8.078;2023-04-24T01:43:06;98539.59;;;11.11;82.95
77192;BME280;66172;48.526;8.078;2023-04-24T01:45:32;98545.50;;;11.17;83.58
77192;BME280;66172;48.526;8.078;2023-04-24T01:47:58;98553.19;;;11.11;83.17
77192;BME280;66172;48.526;8.078;2023-04-24T01:50:25;98548.06;;;11.06;81.54
77192;BME280;66172;48.526;8.078;2023-04-24T01:52:51;98542.19;;;11.04;83.55
77192;BME280;66172;48.526;8.078;2023-04-24T01:55:17;98538.75;;;11.07;83.92
77192;BME280;66172;48.526;8.078;2023-04-24T01:57:43;98543.22;;;10.96;82.87
77192;BME280;66172;48.526;8.078;2023-04-24T02:00:09;98533.66;;;11.06;83.25
77192;BME280;66172;48.526;8.078;2023-04-24T02:02:39;98539.47;;;11.04;82.96
77192;BME280;66172;48.526;8.078;2023-04-24T02:05:06;98536.56;;;11.16;82.66
77192;BME280;66172;48.526;8.078;2023-04-24T02:07:32;98532.63;;;11.14;83.34
77192;BME280;66172;48.526;8.078;2023-04-24T02:09:58;98538.94;;;11.18;83.55
77192;BME280;66172;48.526;8.078;2023-04-24T02:12:24;98539.09;;;11.06;83.70
77192;BME280;66172;48.526;8.078;2023-04-24T02:14:50;98519.81;;;11.14;83.68
77192;BME280;66172;48.526;8.078;2023-04-24T02:17:16;98519.19;;;11.24;82.93
77192;BME280;66172;48.526;8.078;2023-04-24T02:19:43;98519.09;;;11.17;83.61
77192;BME280;66172;48.526;8.078;2023-04-24T02:22:09;98522.38;;;11.30;82.67
77192;BME280;66172;48.526;8.078;2023-04-24T02:24:36;98528.88;;;11.22;82.76
77192;BME280;66172;48.526;8.078;2023-04-24T02:27:02;98531.13;;;10.93;84.00
77192;BME280;66172;48.526;8.078;2023-04-24T02:29:28;98528.03;;;10.95;84.30
77192;BME280;66172;48.526;8.078;2023-04-24T02:31:54;98532.03;;;10.78;84.88
77192;BME280;66172;48.526;8.078;2023-04-24T02:34:20;98528.94;;;10.57;85.87
77192;BME280;66172;48.526;8.078;2023-04-24T02:36:46;98528.34;;;10.67;85.78
77192;BME280;66172;48.526;8.078;2023-04-24T02:39:12;98540.66;;;10.61;84.74
77192;BME280;66172;48.526;8.078;2023-04-24T02:41:39;98542.78;;;10.71;84.84
77192;BME280;66172;48.526;8.078;2023-04-24T02:44:04;98548.81;;;10.84;83.68
77192;BME280;66172;48.526;8.078;2023-04-24T02:46:30;98543.25;;;10.77;84.29
77192;BME280;66172;48.526;8.078;2023-04-24T02:48:56;98545.16;;;10.73;83.58
77192;BME280;66172;48.526;8.078;2023-04-24T02:51:22;98545.50;;;10.71;83.83
77192;BME280;66172;48.526;8.078;2023-04-24T02:53:48;98542.63;;;10.83;82.54
77192;BME280;66172;48.526;8.078;2023-04-24T02:56:14;98543.09;;;10.89;83.06
77192;BME280;66172;48.526;8.078;2023-04-24T02:58:40;98545.41;;;10.87;81.88
77192;BME280;66172;48.526;8.078;2023-04-24T03:01:06;98552.53;;;10.95;81.44
77192;BME280;66172;48.526;8.078;2023-04-24T03:03:32;98545.72;;;11.05;80.96
77192;BME280;66172;48.526;8.078;2023-04-24T03:05:57;98560.69;;;10.95;81.59
77192;BME280;66172;48.526;8.078;2023-04-24T03:08:24;98551.72;;;10.94;81.16
77192;BME280;66172;48.526;8.078;2023-04-24T03:10:50;98557.00;;;11.07;81.82
77192;BME280;66172;48.526;8.078;2023-04-24T03:13:16;98570.59;;;11.07;81.24
77192;BME280;66172;48.526;8.078;2023-04-24T03:15:42;98571.69;;;11.02;82.16
77192;BME280;66172;48.526;8.078;2023-04-24T03:18:08;98584.56;;;11.05;81.87
77192;BME280;66172;48.526;8.078;2023-04-24T03:20:34;98581.78;;;11.01;82.27
77192;BME280;66172;48.526;8.078;2023-04-24T03:23:00;98593.03;;;11.00;82.55
77192;BME280;66172;48.526;8.078;2023-04-24T03:25:26;98589.59;;;11.03;80.87
77192;BME280;66172;48.526;8.078;2023-04-24T03:27:52;98582.88;;;10.97;81.98
77192;BME280;66172;48.526;8.078;2023-04-24T03:30:17;98579.97;;;10.86;82.97
77192;BME280;66172;48.526;8.078;2023-04-24T03:32:43;98582.22;;;11.03;81.77
77192;BME280;66172;48.526;8.078;2023-04-24T03:35:09;98583.41;;;10.83;82.75
77192;BME280;66172;48.526;8.078;2023-04-24T03:37:35;98586.06;;;10.80;82.97
77192;BME280;66172;48.526;8.078;2023-04-24T03:40:02;98599.56;;;10.95;81.88
77192;BME280;66172;48.526;8.078;2023-04-24T03:42:28;98602.06;;;11.04;81.61
77192;BME280;66172;48.526;8.078;2023-04-24T03:44:53;98605.31;;;10.90;82.27
77192;BME280;66172;48.526;8.078;2023-04-24T03:47:19;98609.03;;;11.05;80.33
77192;BME280;66172;48.526;8.078;2023-04-24T03:49:45;98617.06;;;10.98;81.16
77192;BME280;66172;48.526;8.078;2023-04-24T03:52:11;98620.47;;;10.91;81.66
77192;BME280;66172;48.526;8.078;2023-04-24T03:54:37;98636.56;;;10.81;81.60
77192;BME280;66172;48.526;8.078;2023-04-24T03:57:03;98638.09;;;10.78;83.01
77192;BME280;66172;48.526;8.078;2023-04-24T03:59:30;98641.22;;;10.80;82.06
77192;BME280;66172;48.526;8.078;2023-04-24T04:01:56;98647.53;;;10.84;81.90
77192;BME280;66172;48.526;8.078;2023-04-24T04:04:22;98648.38;;;10.88;81.29
77192;BME280;66172;48.526;8.078;2023-04-24T04:06:48;98650.44;;;10.95;81.27
77192;BME280;66172;48.526;8.078;2023-04-24T04:09:14;98655.09;;;10.94;81.62
77192;BME280;66172;48.526;8.078;2023-04-24T04:11:40;98646.78;;;10.87;81.98
77192;BME280;66172;48.526;8.078;2023-04-24T04:14:06;98641.66;;;10.82;82.04
77192;BME280;66172;48.526;8.078;2023-04-24T04:16:32;98646.19;;;10.75;82.38
77192;BME280;66172;48.526;8.078;2023-04-24T04:18:58;98639.53;;;10.72;82.09
77192;BME280;66172;48.526;8.078;2023-04-24T04:21:24;98648.91;;;10.75;82.35
77192;BME280;66172;48.526;8.078;2023-04-24T04:23:52;98647.38;;;10.77;83.00
77192;BME280;66172;48.526;8.078;2023-04-24T04:26:18;98653.19;;;10.76;83.39
77192;BME280;66172;48.526;8.078;2023-04-24T04:28:44;98656.84;;;10.83;82.11
77192;BME280;66172;48.526;8.078;2023-04-24T04:31:10;98666.50;;;10.81;83.14
77192;BME280;66172;48.526;8.078;2023-04-24T04:33:36;98669.06;;;10.74;82.26
77192;BME280;66172;48.526;8.078;2023-04-24T04:36:03;98673.22;;;10.68;82.08
77192;BME280;66172;48.526;8.078;2023-04-24T04:38:29;98676.00;;;10.71;83.29
77192;BME280;66172;48.526;8.078;2023-04-24T04:40:56;98683.88;;;10.57;82.19
77192;BME280;66172;48.526;8.078;2023-04-24T04:43:24;98679.31;;;10.61;81.42
77192;BME280;66172;48.526;8.078;2023-04-24T04:45:52;98690.97;;;10.62;80.71
77192;BME280;66172;48.526;8.078;2023-04-24T04:48:18;98684.88;;;10.68;81.13
77192;BME280;66172;48.526;8.078;2023-04-24T04:50:44;98695.53;;;10.77;80.63
77192;BME280;66172;48.526;8.078;2023-04-24T04:53:10;98697.78;;;10.71;78.86
77192;BME280;66172;48.526;8.078;2023-04-24T04:55:37;98703.69;;;10.77;78.45
77192;BME280;66172;48.526;8.078;2023-04-24T04:58:03;98700.69;;;10.82;78.53
77192;BME280;66172;48.526;8.078;2023-04-24T05:00:29;98707.81;;;10.86;79.84
77192;BME280;66172;48.526;8.078;2023-04-24T05:02:59;98711.59;;;10.82;79.90
77192;BME280;66172;48.526;8.078;2023-04-24T05:05:25;98705.50;;;10.88;79.48
77192;BME280;66172;48.526;8.078;2023-04-24T05:07:51;98712.56;;;10.74;77.06
77192;BME280;66172;48.526;8.078;2023-04-24T05:10:17;98716.38;;;10.88;79.06
77192;BME280;66172;48.526;8.078;2023-04-24T05:12:43;98710.38;;;10.79;74.80
77192;BME280;66172;48.526;8.078;2023-04-24T05:15:09;98705.88;;;10.87;76.97
77192;BME280;66172;48.526;8.078;2023-04-24T05:17:35;98724.91;;;10.87;76.76
77192;BME280;66172;48.526;8.078;2023-04-24T05:20:02;98718.00;;;10.74;75.97
77192;BME280;66172;48.526;8.078;2023-04-24T05:22:31;98723.75;;;10.69;77.29
77192;BME280;66172;48.526;8.078;2023-04-24T05:24:57;98725.22;;;10.66;77.61
77192;BME280;66172;48.526;8.078;2023-04-24T05:27:23;98725.44;;;10.58;78.27
77192;BME280;66172;48.526;8.078;2023-04-24T05:29:50;98730.66;;;10.66;77.55
77192;BME280;66172;48.526;8.078;2023-04-24T05:32:15;98740.94;;;10.73;78.94
77192;BME280;66172;48.526;8.078;2023-04-24T05:34:41;98736.63;;;10.72;77.57
77192;BME280;66172;48.526;8.078;2023-04-24T05:37:07;98734.03;;;10.60;75.21
77192;BME280;66172;48.526;8.078;2023-04-24T05:39:36;98744.41;;;10.73;73.44
77192;BME280;66172;48.526;8.078;2023-04-24T05:42:02;98734.69;;;10.91;71.02
77192;BME280;66172;48.526;8.078;2023-04-24T05:44:28;98751.00;;;10.72;72.10
77192;BME280;66172;48.526;8.078;2023-04-24T05:46:55;98761.75;;;10.65;72.23
77192;BME280;66172;48.526;8.078;2023-04-24T05:49:22;98774.31;;;10.73;73.05
77192;BME280;66172;48.526;8.078;2023-04-24T05:51:48;98788.38;;;10.75;73.46
77192;BME280;66172;48.526;8.078;2023-04-24T05:54:14;98797.25;;;10.72;74.63
77192;BME280;66172;48.526;8.078;2023-04-24T05:56:40;98796.22;;;10.80;74.38
77192;BME280;66172;48.526;8.078;2023-04-24T05:59:06;98810.34;;;10.51;75.59
77192;BME280;66172;48.526;8.078;2023-04-24T06:01:33;98802.03;;;10.28;76.99
77192;BME280;66172;48.526;8.078;2023-04-24T06:03:59;98805.78;;;10.08;77.45
77192;BME280;66172;48.526;8.078;2023-04-24T06:06:25;98818.06;;;10.02;78.00
77192;BME280;66172;48.526;8.078;2023-04-24T06:08:51;98815.34;;;10.02;78.81
77192;BME280;66172;48.526;8.078;2023-04-24T06:11:17;98822.78;;;10.05;79.31
77192;BME280;66172;48.526;8.078;2023-04-24T06:13:43;98816.28;;;9.94;77.54
77192;BME280;66172;48.526;8.078;2023-04-24T06:16:09;98822.97;;;10.12;78.55
77192;BME280;66172;48.526;8.078;2023-04-24T06:18:35;98820.88;;;10.21;78.85
77192;BME280;66172;48.526;8.078;2023-04-24T06:21:01;98827.56;;;10.24;78.25
77192;BME280;66172;48.526;8.078;2023-04-24T06:23:27;98824.94;;;10.27;77.57
77192;BME280;66172;48.526;8.078;2023-04-24T06:25:53;98826.41;;;10.40;77.52
77192;BME280;66172;48.526;8.078;2023-04-24T06:28:18;98831.22;;;10.47;76.07
77192;BME280;66172;48.526;8.078;2023-04-24T06:30:44;98835.00;;;10.42;74.67
77192;BME280;66172;48.526;8.078;2023-04-24T06:33:10;98829.47;;;10.55;74.74
77192;BME280;66172;48.526;8.078;2023-04-24T06:35:36;98828.38;;;10.59;73.76
77192;BME280;66172;48.526;8.078;2023-04-24T06:38:03;98839.09;;;10.68;72.45
77192;BME280;66172;48.526;8.078;2023-04-24T06:40:29;98836.53;;;10.75;73.44
77192;BME280;66172;48.526;8.078;2023-04-24T06:42:55;98845.34;;;10.87;73.20
77192;BME280;66172;48.526;8.078;2023-04-24T06:45:22;98839.81;;;10.84;73.05
77192;BME280;66172;48.526;8.078;2023-04-24T06:47:47;98851.31;;;10.93;71.29
77192;BME280;66172;48.526;8.078;2023-04-24T06:50:13;98846.53;;;10.71;70.99
77192;BME280;66172;48.526;8.078;2023-04-24T06:52:40;98841.78;;;10.83;72.50
77192;BME280;66172;48.526;8.078;2023-04-24T06:55:06;98852.91;;;11.13;70.30
77192;BME280;66172;48.526;8.078;2023-04-24T06:57:32;98846.59;;;10.90;70.43
77192;BME280;66172;48.526;8.078;2023-04-24T06:59:58;98849.13;;;11.18;69.77
77192;BME280;66172;48.526;8.078;2023-04-24T07:02:24;98855.38;;;11.37;68.51
77192;BME280;66172;48.526;8.078;2023-04-24T07:04:51;98854.34;;;11.26;67.24
77192;BME280;66172;48.526;8.078;2023-04-24T07:07:16;98853.00;;;11.55;67.96
77192;BME280;66172;48.526;8.078;2023-04-24T07:09:42;98865.25;;;12.26;66.11
77192;BME280;66172;48.526;8.078;2023-04-24T07:12:10;98862.22;;;12.31;64.68
77192;BME280;66172;48.526;8.078;2023-04-24T07:14:37;98858.44;;;12.62;64.42
77192;BME280;66172;48.526;8.078;2023-04-24T07:17:04;98853.84;;;12.43;62.43
77192;BME280;66172;48.526;8.078;2023-04-24T07:19:30;98855.09;;;12.49;64.15
77192;BME280;66172;48.526;8.078;2023-04-24T07:21:56;98868.97;;;12.63;64.82
77192;BME280;66172;48.526;8.078;2023-04-24T07:24:25;98869.47;;;12.69;61.80
77192;BME280;66172;48.526;8.078;2023-04-24T07:26:51;98871.47;;;12.49;63.58
77192;BME280;66172;48.526;8.078;2023-04-24T07:29:18;98872.31;;;12.53;60.46
77192;BME280;66172;48.526;8.078;2023-04-24T07:31:46;98879.84;;;12.14;62.65
77192;BME280;66172;48.526;8.078;2023-04-24T07:34:12;98883.69;;;11.90;64.94
77192;BME280;66172;48.526;8.078;2023-04-24T07:36:38;98885.13;;;11.84;63.02
77192;BME280;66172;48.526;8.078;2023-04-24T07:39:05;98888.06;;;11.95;61.54
77192;BME280;66172;48.526;8.078;2023-04-24T07:41:31;98890.72;;;11.72;64.20
77192;BME280;66172;48.526;8.078;2023-04-24T07:43:58;98889.91;;;11.52;62.72
77192;BME280;66172;48.526;8.078;2023-04-24T07:46:24;98901.28;;;11.58;62.67
77192;BME280;66172;48.526;8.078;2023-04-24T07:48:50;98907.28;;;11.83;62.72
77192;BME280;66172;48.526;8.078;2023-04-24T07:51:16;98908.94;;;11.87;61.39
77192;BME280;66172;48.526;8.078;2023-04-24T07:53:43;98908.13;;;11.87;61.23
77192;BME280;66172;48.526;8.078;2023-04-24T07:56:09;98919.88;;;12.10;61.30
77192;BME280;66172;48.526;8.078;2023-04-24T07:58:35;98909.19;;;12.01;59.69
77192;BME280;66172;48.526;8.078;2023-04-24T08:01:01;98919.63;;;12.19;57.13
77192;BME280;66172;48.526;8.078;2023-04-24T08:03:27;98924.47;;;12.06;57.36
77192;BME280;66172;48.526;8.078;2023-04-24T08:05:53;98936.97;;;11.88;57.33
77192;BME280;66172;48.526;8.078;2023-04-24T08:08:21;98939.00;;;11.56;56.80
77192;BME280;66172;48.526;8.078;2023-04-24T08:10:47;98944.59;;;11.63;56.86
77192;BME280;66172;48.526;8.078;2023-04-24T08:13:13;98946.41;;;12.13;55.89
77192;BME280;66172;48.526;8.078;2023-04-24T08:15:39;98958.16;;;14.24;48.48
77192;BME280;66172;48.526;8.078;2023-04-24T08:18:05;98943.84;;;14.78;47.40
77192;BME280;66172;48.526;8.078;2023-04-24T08:20:31;98944.63;;;14.75;46.77
77192;BME280;66172;48.526;8.078;2023-04-24T08:22:56;98958.66;;;15.21;46.11
77192;BME280;66172;48.526;8.078;2023-04-24T08:25:23;98960.84;;;15.48;44.50
77192;BME280;66172;48.526;8.078;2023-04-24T08:27:50;98971.06;;;14.60;45.86
77192;BME280;66172;48.526;8.078;2023-04-24T08:30:17;98979.41;;;14.04;46.50
77192;BME280;66172;48.526;8.078;2023-04-24T08:32:43;98973.63;;;14.09;45.09
77192;BME280;66172;48.526;8.078;2023-04-24T08:35:09;98967.09;;;13.54;48.82
77192;BME280;66172;48.526;8.078;2023-04-24T08:37:35;98981.50;;;13.55;49.56
77192;BME280;66172;48.526;8.078;2023-04-24T08:40:06;98983.47;;;13.28;52.33
77192;BME280;66172;48.526;8.078;2023-04-24T08:42:33;98978.31;;;13.00;49.80
77192;BME280;66172;48.526;8.078;2023-04-24T08:45:01;98973.13;;;12.69;51.08
77192;BME280;66172;48.526;8.078;2023-04-24T08:47:28;98977.13;;;12.75;50.81
77192;BME280;66172;48.526;8.078;2023-04-24T08:49:55;98976.81;;;12.34;52.00
77192;BME280;66172;48.526;8.078;2023-04-24T08:52:21;98972.97;;;12.39;52.78
77192;BME280;66172;48.526;8.078;2023-04-24T08:54:47;98984.59;;;12.36;52.14
77192;BME280;66172;48.526;8.078;2023-04-24T08:57:14;98973.22;;;12.11;52.62
77192;BME280;66172;48.526;8.078;2023-04-24T08:59:41;98984.25;;;12.18;54.13
77192;BME280;66172;48.526;8.078;2023-04-24T09:02:10;98986.78;;;12.08;53.85
77192;BME280;66172;48.526;8.078;2023-04-24T09:04:37;98998.97;;;11.94;53.78
77192;BME280;66172;48.526;8.078;2023-04-24T09:07:05;98987.06;;;11.83;55.49
77192;BME280;66172;48.526;8.078;2023-04-24T09:09:32;98992.56;;;11.68;55.19
77192;BME280;66172;48.526;8.078;2023-04-24T09:11:58;98991.06;;;11.54;56.32
77192;BME280;66172;48.526;8.078;2023-04-24T09:14:25;98998.50;;;11.38;57.08
77192;BME280;66172;48.526;8.078;2023-04-24T09:16:51;99001.53;;;11.18;60.35
77192;BME280;66172;48.526;8.078;2023-04-24T09:19:17;99019.16;;;11.24;60.47
77192;BME280;66172;48.526;8.078;2023-04-24T09:21:46;99011.63;;;11.33;61.17
77192;BME280;66172;48.526;8.078;2023-04-24T09:24:19;99016.72;;;11.19;61.12
77192;BME280;66172;48.526;8.078;2023-04-24T09:26:49;99022.72;;;11.43;59.52
77192;BME280;66172;48.526;8.078;2023-04-24T09:29:21;99030.72;;;11.52;62.12
77192;BME280;66172;48.526;8.078;2023-04-24T09:31:47;99041.03;;;11.27;61.19
77192;BME280;66172;48.526;8.078;2023-04-24T09:34:13;99038.31;;;11.12;62.22
77192;BME280;66172;48.526;8.078;2023-04-24T09:36:42;99034.72;;;11.08;61.79
77192;BME280;66172;48.526;8.078;2023-04-24T09:39:13;99040.59;;;11.25;61.23
77192;BME280;66172;48.526;8.078;2023-04-24T09:41:52;99041.84;;;11.47;61.68
77192;BME280;66172;48.526;8.078;2023-04-24T09:44:22;99041.56;;;11.68;60.08
77192;BME280;66172;48.526;8.078;2023-04-24T09:46:51;99039.44;;;11.92;60.29
77192;BME280;66172;48.526;8.078;2023-04-24T09:49:22;99046.06;;;11.76;57.19
77192;BME280;66172;48.526;8.078;2023-04-24T09:51:48;99043.28;;;12.11;55.88
77192;BME280;66172;48.526;8.078;2023-04-24T09:54:16;99056.16;;;12.10;56.36
77192;BME280;66172;48.526;8.078;2023-04-24T09:56:47;99048.84;;;11.79;56.36
77192;BME280;66172;48.526;8.078;2023-04-24T09:59:19;99058.06;;;11.90;56.92
77192;BME280;66172;48.526;8.078;2023-04-24T10:01:46;99050.44;;;11.65;57.11
77192;BME280;66172;48.526;8.078;2023-04-24T10:04:18;99048.16;;;11.67;56.52
77192;BME280;66172;48.526;8.078;2023-04-24T10:06:45;99059.44;;;11.49;58.23
77192;BME280;66172;48.526;8.078;2023-04-24T10:09:12;99062.03;;;11.62;58.44
77192;BME280;66172;48.526;8.078;2023-04-24T10:11:47;99074.63;;;11.50;60.03
77192;BME280;66172;48.526;8.078;2023-04-24T10:14:18;99077.88;;;11.56;61.11
77192;BME280;66172;48.526;8.078;2023-04-24T10:16:44;99077.25;;;11.63;60.23
77192;BME280;66172;48.526;8.078;2023-04-24T10:19:13;99083.13;;;11.80;59.35
77192;BME280;66172;48.526;8.078;2023-04-24T10:21:41;99084.16;;;11.91;60.58
77192;BME280;66172;48.526;8.078;2023-04-24T10:24:08;99082.25;;;12.11;59.03
77192;BME280;66172;48.526;8.078;2023-04-24T10:26:35;99078.94;;;12.21;58.64
77192;BME280;66172;48.526;8.078;2023-04-24T10:29:02;99081.59;;;12.18;56.74
77192;BME280;66172;48.526;8.078;2023-04-24T10:31:31;99077.22;;;12.32;58.25
77192;BME280;66172;48.526;8.078;2023-04-24T10:33:58;99084.03;;;12.42;57.85
77192;BME280;66172;48.526;8.078;2023-04-24T10:36:26;99079.09;;;12.47;55.63
77192;BME280;66172;48.526;8.078;2023-04-24T10:38:55;99078.06;;;12.75;57.00
77192;BME280;66172;48.526;8.078;2023-04-24T10:41:25;99081.69;;;13.01;55.38
77192;BME280;66172;48.526;8.078;2023-04-24T10:44:24;99075.22;;;13.32;56.19
77192;BME280;66172;48.526;8.078;2023-04-24T10:46:53;99079.44;;;13.52;56.80
77192;BME280;66172;48.526;8.078;2023-04-24T10:49:30;99075.91;;;13.52;54.61
77192;BME280;66172;48.526;8.078;2023-04-24T10:52:01;99080.66;;;13.81;54.66
77192;BME280;66172;48.526;8.078;2023-04-24T10:54:28;99077.22;;;14.14;52.12
77192;BME280;66172;48.526;8.078;2023-04-24T10:59:47;99078.13;;;13.95;53.96
77192;BME280;66172;48.526;8.078;2023-04-24T11:02:16;99089.78;;;13.17;52.87
77192;BME280;66172;48.526;8.078;2023-04-24T11:04:43;99090.50;;;13.14;53.62
77192;BME280;66172;48.526;8.078;2023-04-24T11:07:10;99093.78;;;12.81;55.03
77192;BME280;66172;48.526;8.078;2023-04-24T11:09:36;99105.88;;;12.61;55.91
77192;BME280;66172;48.526;8.078;2023-04-24T11:12:08;99106.22;;;12.21;56.19
77192;BME280;66172;48.526;8.078;2023-04-24T11:17:35;99116.50;;;12.28;58.86
77192;BME280;66172;48.526;8.078;2023-04-24T11:20:06;99125.44;;;11.93;60.24
77192;BME280;66172;48.526;8.078;2023-04-24T11:22:34;99127.75;;;12.26;59.99
77192;BME280;66172;48.526;8.078;2023-04-24T11:25:02;99123.91;;;12.12;59.95
77192;BME280;66172;48.526;8.078;2023-04-24T11:27:31;99136.00;;;12.68;59.89
77192;BME280;66172;48.526;8.078;2023-04-24T11:32:35;99139.38;;;12.42;60.33
77192;BME280;66172;48.526;8.078;2023-04-24T11:35:12;99133.88;;;12.58;57.65
77192;BME280;66172;48.526;8.078;2023-04-24T11:37:40;99127.78;;;13.07;56.84
77192;BME280;66172;48.526;8.078;2023-04-24T11:40:13;99126.38;;;13.35;55.78
77192;BME280;66172;48.526;8.078;2023-04-24T11:42:47;99125.47;;;13.28;55.51
77192;BME280;66172;48.526;8.078;2023-04-24T11:45:15;99133.28;;;13.75;55.43
77192;BME280;66172;48.526;8.078;2023-04-24T11:47:43;99132.88;;;13.76;54.70
77192;BME280;66172;48.526;8.078;2023-04-24T11:50:12;99128.78;;;14.16;55.02
77192;BME280;66172;48.526;8.078;2023-04-24T11:52:40;99133.44;;;14.38;54.44
77192;BME280;66172;48.526;8.078;2023-04-24T11:55:23;99127.28;;;13.43;53.29
77192;BME280;66172;48.526;8.078;2023-04-24T11:57:56;99127.06;;;13.78;53.24
77192;BME280;66172;48.526;8.078;2023-04-24T12:00:24;99128.72;;;13.82;55.24
77192;BME280;66172;48.526;8.078;2023-04-24T12:02:51;99125.81;;;13.72;54.09
77192;BME280;66172;48.526;8.078;2023-04-24T12:05:25;99118.59;;;13.37;53.85
77192;BME280;66172;48.526;8.078;2023-04-24T12:07:52;99115.53;;;13.65;52.64
77192;BME280;66172;48.526;8.078;2023-04-24T12:10:22;99124.13;;;13.41;55.33
77192;BME280;66172;48.526;8.078;2023-04-24T12:12:49;99113.97;;;13.41;52.99
77192;BME280;66172;48.526;8.078;2023-04-24T12:15:18;99101.09;;;12.96;54.87
77192;BME280;66172;48.526;8.078;2023-04-24T12:17:45;99097.97;;;13.17;53.83
77192;BME280;66172;48.526;8.078;2023-04-24T12:20:11;99102.00;;;13.04;54.63
77192;BME280;66172;48.526;8.078;2023-04-24T12:22:51;99095.69;;;13.19;53.55
77192;BME280;66172;48.526;8.078;2023-04-24T12:25:21;99098.16;;;12.86;54.26
77192;BME280;66172;48.526;8.078;2023-04-24T12:27:53;99106.38;;;13.09;52.28
77192;BME280;66172;48.526;8.078;2023-04-24T12:30:21;99111.78;;;13.05;51.83
77192;BME280;66172;48.526;8.078;2023-04-24T12:32:51;99114.13;;;12.65;53.19
77192;BME280;66172;48.526;8.078;2023-04-24T12:35:22;99110.38;;;12.53;54.59
77192;BME280;66172;48.526;8.078;2023-04-24T12:37:49;99108.53;;;12.38;52.87
77192;BME280;66172;48.526;8.078;2023-04-24T12:40:17;99117.56;;;12.62;53.79
77192;BME280;66172;48.526;8.078;2023-04-24T12:42:45;99107.66;;;12.53;53.52
77192;BME280;66172;48.526;8.078;2023-04-24T12:45:11;99107.66;;;12.73;54.12
77192;BME280;66172;48.526;8.078;2023-04-24T12:47:38;99105.34;;;12.94;52.54
77192;BME280;66172;48.526;8.078;2023-04-24T12:50:05;99106.66;;;12.62;51.93
77192;BME280;66172;48.526;8.078;2023-04-24T12:52:31;99111.13;;;12.70;52.49
77192;BME280;66172;48.526;8.078;2023-04-24T12:54:59;99109.06;;;12.67;52.85
77192;BME280;66172;48.526;8.078;2023-04-24T12:57:27;99113.56;;;12.56;53.97
77192;BME280;66172;48.526;8.078;2023-04-24T12:59:54;99107.50;;;12.46;54.18
77192;BME280;66172;48.526;8.078;2023-04-24T13:02:25;99106.00;;;12.49;53.09
77192;BME280;66172;48.526;8.078;2023-04-24T13:04:52;99098.78;;;12.37;53.57
77192;BME280;66172;48.526;8.078;2023-04-24T13:07:18;99104.28;;;12.41;53.29